createdAt,value
2018-03-29T01:37:48.066Z,6.09
2018-03-29T01:38:47.997Z,6.06
2018-03-29T01:39:47.998Z,6.19
2018-03-29T01:40:48.002Z,6.14
2018-03-29T08:36:54.096Z,6.97
2018-03-29T08:37:26.832Z,6.80
2018-03-29T08:38:26.846Z,6.71
2018-03-29T08:39:26.949Z,6.73
2018-03-29T08:40:27.047Z,6.83
2018-03-29T08:41:26.834Z,6.77
2018-03-29T08:42:26.841Z,6.86
2018-03-29T08:43:26.854Z,6.84
2018-03-29T08:45:02.105Z,6.79
2018-03-29T08:45:27.031Z,6.81
2018-03-29T08:46:26.852Z,7.04
2018-03-29T08:47:26.833Z,7.01
2018-03-29T08:48:26.836Z,6.80
2018-03-29T08:54:03.344Z,6.97
2018-03-29T08:55:02.722Z,6.80
2018-03-29T08:56:02.853Z,6.76
2018-03-29T08:57:02.714Z,6.83
2018-03-29T08:58:02.705Z,6.83
2018-03-29T09:09:51.580Z,6.73
2018-03-29T09:10:51.568Z,6.94
2018-03-29T09:11:51.589Z,7.05
2018-03-29T09:12:51.611Z,6.99
2018-03-29T09:23:15.459Z,7.23
2018-03-29T09:23:52.667Z,7.35
2018-03-29T09:24:52.708Z,7.35
2018-03-29T09:25:52.683Z,7.44
2018-03-29T09:26:52.673Z,7.62
2018-03-29T09:27:52.669Z,7.81
2018-03-29T09:41:51.509Z,6.79
2018-03-29T10:21:19.758Z,9.50
2018-03-29T10:22:19.714Z,9.09
2018-03-29T10:23:19.693Z,9.48
2018-03-29T10:25:53.539Z,9.66
2018-03-29T10:26:51.440Z,9.21
2018-03-29T10:27:51.467Z,8.91
2018-03-29T10:28:51.438Z,8.54
